Time;durP1;ratioP1;P1;durP2;ratioP2;P2;SDS_P1;SDS_P2;PMS_P1;PMS_P2;Temp;Humidity;BMP_temperature;BMP_pressure;BME280_temperature;BME280_humidity;BME280_pressure;Samples;Min_cycle;Max_cycle;Signal;HPM_P1;HPM_P2
2021/10/24 14:43:05;;;;;;;7.80;5.18;;;11.60;99.90;;;;;;5103507;27;1267371;-81
2021/10/24 14:45:33;;;;;;;4.50;3.53;;;12.20;99.90;;;;;;5085731;28;20651;-79
2021/10/24 14:47:59;;;;;;;5.03;3.40;;;12.70;99.90;;;;;;5082423;28;20441;-78
2021/10/24 14:50:26;;;;;;;6.80;3.50;;;13.00;99.90;;;;;;5078651;28;20488;-78
2021/10/24 14:52:59;;;;;;;6.37;4.20;;;13.10;99.90;;;;;;5065517;28;20446;-81
2021/10/24 14:55:26;;;;;;;4.27;3.67;;;13.30;99.90;;;;;;5098643;28;20541;-90
2021/10/24 14:57:54;;;;;;;3.97;3.60;;;;;;;;;;5103530;28;20441;-87
2021/10/24 15:00:22;;;;;;;4.30;3.17;;;13.10;99.90;;;;;;5084084;28;20410;-88
2021/10/24 15:02:49;;;;;;;6.20;3.63;;;13.00;99.90;;;;;;5051562;28;20473;-91
2021/10/24 15:05:18;;;;;;;5.07;3.73;;;12.90;99.90;;;;;;5082440;28;20462;-91
2021/10/24 15:07:46;;;;;;;4.50;4.10;;;12.90;99.90;;;;;;5067435;28;20423;-91
2021/10/24 15:10:15;;;;;;;4.00;3.53;;;12.80;99.90;;;;;;5028724;22;20857;-61
2021/10/24 15:12:41;;;;;;;6.10;4.03;;;12.80;99.90;;;;;;5007732;28;20443;-62
2021/10/24 15:15:09;;;;;;;6.17;4.00;;;12.70;99.90;;;;;;4989178;28;20566;-61
2021/10/24 15:17:46;;;;;;;3.87;3.33;;;12.70;99.90;;;;;;4987129;28;20456;-61
2021/10/24 15:23:01;;;;;;;4.43;3.70;;;12.70;99.90;;;;;;4993012;28;20552;-61
2021/10/24 15:25:29;;;;;;;4.13;3.73;;;12.60;99.90;;;;;;4989378;28;20441;-62
2021/10/24 15:27:57;;;;;;;5.03;3.20;;;12.60;99.90;;;;;;4987300;28;20455;-62
2021/10/24 15:30:25;;;;;;;4.83;3.40;;;12.50;99.90;;;;;;5003692;28;20437;-61
2021/10/24 15:32:53;;;;;;;3.87;3.53;;;12.40;99.90;;;;;;5011254;28;20501;-61
2021/10/24 15:35:21;;;;;;;5.33;3.43;;;12.30;99.90;;;;;;4981038;28;20481;-61
2021/10/24 15:37:48;;;;;;;4.83;3.70;;;12.20;99.90;;;;;;4989040;28;20467;-61
2021/10/24 15:40:16;;;;;;;5.00;3.90;;;12.10;99.90;;;;;;4988456;28;20572;-61
2021/10/24 15:42:44;;;;;;;4.77;3.47;;;12.10;99.90;;;;;;4979978;28;20481;-62
2021/10/24 15:45:11;;;;;;;7.53;3.83;;;12.00;99.90;;;;;;4969480;28;20548;-62
2021/10/24 15:47:38;;;;;;;8.90;3.67;;;11.80;99.90;;;;;;4970391;28;20458;-62
2021/10/24 15:50:11;;;;;;;4.40;3.10;;;11.80;99.90;;;;;;5004667;23;20462;-60
2021/10/24 15:52:40;;;;;;;5.10;2.93;;;11.70;99.90;;;;;;5005270;28;20441;-60
2021/10/24 15:55:10;;;;;;;2.90;2.60;;;11.70;99.90;;;;;;4960899;28;21003;-59
2021/10/24 15:57:38;;;;;;;2.70;2.50;;;11.70;99.90;;;;;;4966266;28;20526;-60
2021/10/24 16:00:07;;;;;;;3.50;1.70;;;11.70;99.90;;;;;;4968804;28;20558;-60
2021/10/24 16:02:35;;;;;;;2.40;1.70;;;11.80;99.90;;;;;;4953629;28;20532;-60
2021/10/24 16:05:04;;;;;;;2.27;2.07;;;11.80;99.90;;;;;;4976232;28;20477;-60
2021/10/24 16:07:31;;;;;;;2.03;1.83;;;11.80;99.90;;;;;;4958646;28;20926;-60
2021/10/24 16:10:23;;;;;;;4.50;1.97;;;11.80;99.90;;;;;;4969817;28;20487;-60
2021/10/24 16:12:50;;;;;;;2.30;1.70;;;11.70;99.90;;;;;;4946109;28;20439;-60
2021/10/24 16:15:18;;;;;;;3.03;1.50;;;11.60;99.90;;;;;;4963476;28;20483;-60
2021/10/24 16:17:45;;;;;;;5.77;1.87;;;11.50;99.90;;;;;;4969782;28;20461;-60
2021/10/24 16:20:13;;;;;;;3.60;2.10;;;11.40;99.90;;;;;;4968452;28;20850;-60
2021/10/24 16:22:41;;;;;;;2.43;1.90;;;11.40;99.90;;;;;;4964536;28;20563;-60
2021/10/24 16:25:08;;;;;;;3.43;2.80;;;11.40;99.90;;;;;;4972912;28;20476;-61
2021/10/24 16:27:35;;;;;;;4.07;3.27;;;11.30;99.90;;;;;;4971810;28;20485;-61
2021/10/24 16:30:03;;;;;;;3.83;3.40;;;11.20;99.90;;;;;;4974482;28;20452;-60
2021/10/24 16:32:31;;;;;;;6.43;3.93;;;11.10;99.90;;;;;;4957991;28;20436;-61
2021/10/24 16:34:58;;;;;;;3.83;2.60;;;11.10;99.90;;;;;;4986912;28;20497;-61
2021/10/24 16:37:26;;;;;;;4.43;2.87;;;11.10;99.90;;;;;;4982335;28;20467;-60
2021/10/24 16:39:53;;;;;;;2.70;2.33;;;11.00;99.90;;;;;;4971819;28;20849;-60
2021/10/24 16:42:20;;;;;;;2.77;2.57;;;10.90;99.90;;;;;;4985663;28;20470;-61
2021/10/24 16:44:47;;;;;;;4.03;3.17;;;;;;;;;;4988338;28;20482;-62
2021/10/24 16:47:15;;;;;;;6.67;4.30;;;10.70;99.90;;;;;;4993385;28;20520;-61
2021/10/24 16:49:41;;;;;;;4.67;4.23;;;10.70;99.90;;;;;;4975098;28;21135;-60
2021/10/24 16:52:08;;;;;;;5.07;4.20;;;10.70;99.90;;;;;;4974726;28;20442;-62
2021/10/24 16:54:35;;;;;;;7.73;4.50;;;10.70;99.90;;;;;;4977217;28;20485;-60
2021/10/24 16:57:02;;;;;;;3.97;3.40;;;10.60;99.90;;;;;;4991288;28;20449;-61
2021/10/24 16:59:30;;;;;;;6.00;3.93;;;10.50;99.90;;;;;;4990656;28;20544;-60
2021/10/24 17:01:57;;;;;;;4.90;4.50;;;10.40;99.90;;;;;;4991299;28;20476;-61
2021/10/24 17:04:24;;;;;;;8.70;4.70;;;10.40;99.90;;;;;;4989273;28;20481;-62
2021/10/24 17:06:51;;;;;;;6.73;4.50;;;10.30;99.90;;;;;;4983837;28;20441;-61
2021/10/24 17:09:18;;;;;;;9.17;5.07;;;10.30;99.90;;;;;;4979230;28;20542;-60
2021/10/24 17:11:45;;;;;;;5.63;4.03;;;10.30;99.90;;;;;;4979634;28;20900;-60
2021/10/24 17:14:16;;;;;;;4.67;4.17;;;10.20;99.90;;;;;;4992036;28;20493;-61
2021/10/24 17:16:43;;;;;;;4.60;4.20;;;10.30;99.90;;;;;;4993554;28;20428;-61
2021/10/24 17:19:10;;;;;;;4.50;3.33;;;10.20;99.90;;;;;;4976420;28;21070;-59
2021/10/24 17:21:37;;;;;;;7.90;4.70;;;10.20;99.90;;;;;;4974198;28;20525;-61
2021/10/24 17:24:05;;;;;;;4.77;4.27;;;10.10;99.90;;;;;;4973541;28;20476;-61
2021/10/24 17:26:33;;;;;;;4.23;3.13;;;10.10;99.90;;;;;;4982337;28;20495;-61
2021/10/24 17:29:00;;;;;;;6.00;4.63;;;10.00;99.90;;;;;;4998467;28;20478;-60
2021/10/24 17:31:27;;;;;;;5.40;4.90;;;10.00;99.90;;;;;;5001553;28;20791;-61
2021/10/24 17:33:54;;;;;;;8.67;4.97;;;10.00;99.90;;;;;;5001336;28;20473;-61
2021/10/24 17:36:21;;;;;;;6.37;4.60;;;10.00;99.90;;;;;;4976202;28;20833;-61
2021/10/24 17:38:48;;;;;;;5.67;3.63;;;10.00;99.90;;;;;;5004060;28;20764;-61
2021/10/24 17:41:15;;;;;;;4.23;3.83;;;10.00;99.90;;;;;;5005724;28;20425;-60
2021/10/24 17:43:41;;;;;;;4.53;3.60;;;9.90;99.90;;;;;;4993372;28;20478;-60
2021/10/24 17:46:20;;;;;;;5.77;3.90;;;9.90;99.90;;;;;;4992893;28;20611;-61
2021/10/24 17:48:47;;;;;;;7.23;4.77;;;9.90;99.90;;;;;;4981112;28;20472;-60
2021/10/24 17:51:14;;;;;;;4.87;4.40;;;9.90;99.90;;;;;;4987406;28;20462;-60
2021/10/24 17:53:41;;;;;;;7.30;5.20;;;9.80;99.90;;;;;;4973096;28;20467;-60
2021/10/24 17:56:08;;;;;;;5.27;4.33;;;9.70;99.90;;;;;;4973191;28;20450;-61
2021/10/24 17:58:35;;;;;;;6.83;4.20;;;9.70;99.90;;;;;;4983145;28;20470;-60
2021/10/24 18:01:03;;;;;;;5.47;4.03;;;9.60;99.90;;;;;;4988562;28;20466;-59
2021/10/24 18:03:30;;;;;;;4.50;3.93;;;9.50;99.90;;;;;;4966629;28;20499;-61
2021/10/24 18:05:57;;;;;;;4.50;3.53;;;9.50;99.90;;;;;;4990255;28;20788;-61
2021/10/24 18:08:24;;;;;;;4.10;3.43;;;9.40;99.90;;;;;;4975357;28;20481;-60
2021/10/24 18:10:51;;;;;;;5.20;3.27;;;9.30;99.90;;;;;;4992256;28;20426;-59
2021/10/24 18:13:18;;;;;;;2.90;2.70;;;9.20;99.90;;;;;;4971481;28;20984;-60
2021/10/24 18:15:45;;;;;;;8.50;4.83;;;9.10;99.90;;;;;;4991349;28;20446;-61
2021/10/24 18:18:12;;;;;;;3.40;2.80;;;9.00;99.90;;;;;;4991633;28;20949;-61
2021/10/24 18:20:41;;;;;;;3.63;3.33;;;9.00;99.90;;;;;;4989891;28;20911;-61
2021/10/24 18:23:09;;;;;;;4.33;3.80;;;8.90;99.90;;;;;;4990441;28;20470;-62
2021/10/24 18:25:36;;;;;;;3.67;3.27;;;8.80;99.90;;;;;;4991097;28;20444;-61
2021/10/24 18:28:03;;;;;;;6.00;3.50;;;8.80;99.90;;;;;;4960798;28;20431;-62
2021/10/24 18:30:30;;;;;;;3.83;3.07;;;8.80;99.90;;;;;;4973007;28;20419;-60
2021/10/24 18:32:57;;;;;;;4.63;3.97;;;8.70;99.90;;;;;;4978531;28;20503;-60
2021/10/24 18:35:24;;;;;;;4.07;2.87;;;8.70;99.90;;;;;;4993432;28;20484;-61
2021/10/24 18:37:51;;;;;;;4.13;3.70;;;8.70;99.90;;;;;;4985612;28;20805;-61
2021/10/24 18:40:19;;;;;;;3.50;3.20;;;8.80;99.90;;;;;;4992472;28;20797;-60
2021/10/24 18:42:47;;;;;;;3.37;3.07;;;8.80;99.90;;;;;;5011986;28;20822;-61
2021/10/24 18:45:15;;;;;;;3.63;3.00;;;8.80;99.90;;;;;;5005971;28;20657;-63
2021/10/24 18:47:43;;;;;;;5.10;3.63;;;8.90;99.90;;;;;;4985643;28;20441;-62
2021/10/24 18:50:14;;;;;;;6.43;4.60;;;8.80;99.90;;;;;;4990457;28;20465;-60
2021/10/24 18:52:41;;;;;;;4.53;4.13;;;8.80;99.90;;;;;;4990481;28;20444;-62
2021/10/24 18:55:09;;;;;;;4.60;3.63;;;8.70;99.90;;;;;;4990253;28;21206;-61
2021/10/24 18:57:36;;;;;;;3.60;3.27;;;8.60;99.90;;;;;;4985682;28;20445;-62
2021/10/24 19:00:06;;;;;;;6.23;3.77;;;8.50;99.90;;;;;;5029890;28;20475;-59
2021/10/24 19:02:35;;;;;;;5.53;3.80;;;8.50;99.90;;;;;;5030632;28;20598;-62
2021/10/24 19:05:02;;;;;;;5.03;3.73;;;8.40;99.90;;;;;;5005486;28;20484;-61
2021/10/24 19:07:30;;;;;;;4.97;4.00;;;8.30;99.90;;;;;;4992000;28;20433;-61
2021/10/24 19:09:58;;;;;;;4.30;3.90;;;;;;;;;;4991678;28;20474;-60
2021/10/24 19:12:26;;;;;;;5.47;3.70;;;8.10;99.90;;;;;;4992429;28;20446;-62
2021/10/24 19:14:52;;;;;;;4.50;4.10;;;8.00;99.90;;;;;;4991550;28;20473;-61
2021/10/24 19:17:19;;;;;;;4.10;3.70;;;7.90;99.90;;;;;;4995549;28;20514;-61
2021/10/24 19:19:46;;;;;;;4.77;4.33;;;7.90;99.90;;;;;;5019062;28;20483;-60
2021/10/24 19:22:13;;;;;;;4.40;4.00;;;7.90;99.90;;;;;;5031275;28;20993;-61
2021/10/24 19:24:40;;;;;;;5.00;3.35;;;7.80;99.90;;;;;;5017635;28;20491;-62
2021/10/24 19:27:08;;;;;;;5.83;3.70;;;7.70;99.90;;;;;;5011302;28;20644;-62
2021/10/24 19:29:35;;;;;;;5.38;3.75;;;7.80;99.90;;;;;;5005025;28;21025;-60
2021/10/24 19:32:02;;;;;;;5.20;4.23;;;7.70;99.90;;;;;;4995756;28;20181;-60
2021/10/24 19:34:29;;;;;;;4.25;3.45;;;7.60;99.90;;;;;;4999861;28;20985;-61
2021/10/24 19:36:56;;;;;;;7.20;4.20;;;7.50;99.90;;;;;;5028717;28;20182;-61
2021/10/24 19:39:23;;;;;;;4.88;3.80;;;7.50;99.90;;;;;;5034183;28;20221;-61
2021/10/24 19:41:49;;;;;;;4.72;3.72;;;7.50;99.90;;;;;;5034933;28;20216;-60
2021/10/24 19:44:17;;;;;;;5.00;4.30;;;7.50;99.90;;;;;;5022596;28;20642;-61
2021/10/24 19:46:44;;;;;;;4.90;4.33;;;7.50;99.90;;;;;;5014892;28;20186;-61
2021/10/24 19:49:11;;;;;;;6.63;5.17;;;7.40;99.90;;;;;;5011887;28;20556;-61
2021/10/24 19:51:38;;;;;;;4.80;4.28;;;7.40;99.90;;;;;;4995179;28;20440;-60
2021/10/24 19:54:04;;;;;;;7.63;4.27;;;7.30;99.90;;;;;;4994409;28;20236;-62
2021/10/24 19:56:36;;;;;;;7.18;4.35;;;7.30;99.90;;;;;;4994930;28;20433;-61
2021/10/24 19:59:04;;;;;;;5.70;4.87;;;7.30;99.90;;;;;;4995194;28;20586;-61
2021/10/24 20:01:33;;;;;;;7.45;3.78;;;7.30;99.90;;;;;;5009683;28;20531;-59
2021/10/24 20:04:04;;;;;;;8.73;5.50;;;7.30;99.90;;;;;;5013353;28;20230;-62
2021/10/24 20:06:31;;;;;;;5.55;4.60;;;7.30;99.90;;;;;;5014393;28;20428;-61
2021/10/24 20:08:58;;;;;;;6.10;5.07;;;7.40;99.90;;;;;;5020926;28;20609;-61
2021/10/24 20:11:25;;;;;;;6.10;4.78;;;7.50;99.90;;;;;;5017867;28;20435;-61
2021/10/24 20:13:54;;;;;;;5.67;5.00;;;7.60;99.90;;;;;;5011755;28;20650;-61
2021/10/24 20:16:22;;;;;;;8.80;4.60;;;7.60;99.90;;;;;;5014190;28;20478;-61
2021/10/24 20:18:49;;;;;;;7.63;5.30;;;7.50;99.90;;;;;;5014043;28;20461;-61
2021/10/24 20:21:18;;;;;;;5.75;5.25;;;7.60;99.90;;;;;;4995171;28;20546;-60
2021/10/24 20:23:45;;;;;;;8.55;5.00;;;7.60;99.90;;;;;;4994398;28;20601;-62
2021/10/24 20:26:12;;;;;;;6.05;5.45;;;7.60;99.90;;;;;;4994609;28;20182;-62
2021/10/24 20:28:39;;;;;;;6.03;5.40;;;7.60;99.90;;;;;;5000754;28;20228;-63
2021/10/24 20:31:06;;;;;;;5.30;3.97;;;7.50;99.90;;;;;;5014340;28;20196;-61
2021/10/24 20:33:34;;;;;;;4.47;3.90;;;7.40;99.90;;;;;;4996387;28;20467;-62
2021/10/24 20:36:00;;;;;;;5.35;3.58;;;7.30;99.90;;;;;;4996766;28;20208;-61
2021/10/24 20:38:27;;;;;;;4.65;4.25;;;7.10;99.90;;;;;;4993777;28;20231;-61
2021/10/24 20:40:55;;;;;;;5.90;5.30;;;7.20;99.90;;;;;;4994512;28;20182;-62
2021/10/24 20:43:23;;;;;;;4.13;3.70;;;7.10;99.90;;;;;;5004888;28;20466;-61
2021/10/24 20:45:51;;;;;;;6.25;4.60;;;7.10;99.90;;;;;;5013834;28;20199;-61
2021/10/24 20:48:18;;;;;;;5.65;3.72;;;7.10;99.90;;;;;;5013040;28;20226;-61
2021/10/24 20:50:46;;;;;;;5.80;5.00;;;7.00;99.90;;;;;;5013286;28;20212;-60
2021/10/24 20:53:13;;;;;;;4.97;4.28;;;7.00;99.90;;;;;;5013041;28;20189;-62
2021/10/24 20:55:40;;;;;;;5.27;3.90;;;6.90;99.90;;;;;;5013867;28;20265;-61
2021/10/24 20:58:07;;;;;;;7.50;4.55;;;6.80;99.90;;;;;;5012133;28;20473;-61
2021/10/24 21:00:34;;;;;;;8.10;4.65;;;6.70;99.90;;;;;;5013675;28;20279;-61
2021/10/24 21:03:01;;;;;;;5.68;4.50;;;6.70;99.90;;;;;;5012774;28;20283;-62
2021/10/24 21:05:29;;;;;;;5.63;4.90;;;6.70;99.90;;;;;;5012881;28;20192;-61
2021/10/24 21:07:55;;;;;;;6.47;4.45;;;6.70;99.90;;;;;;5012678;28;20192;-61
2021/10/24 21:10:22;;;;;;;7.57;4.70;;;6.70;99.90;;;;;;5013438;28;20267;-60
2021/10/24 21:12:49;;;;;;;5.80;4.65;;;6.70;99.90;;;;;;5014861;28;20191;-61
2021/10/24 21:15:16;;;;;;;5.82;5.13;;;6.70;99.90;;;;;;5012555;28;20235;-61
2021/10/24 21:17:43;;;;;;;5.60;4.20;;;6.70;99.90;;;;;;5013088;28;20563;-61
2021/10/24 21:20:10;;;;;;;8.18;4.88;;;6.80;99.90;;;;;;5002080;28;20219;-60
2021/10/24 21:22:38;;;;;;;5.78;4.18;;;6.90;99.90;;;;;;4993587;28;20220;-60
2021/10/24 21:25:06;;;;;;;6.88;5.20;;;6.90;99.90;;;;;;4992959;28;20700;-62
2021/10/24 21:27:33;;;;;;;5.28;4.78;;;6.90;99.90;;;;;;4993366;28;20189;-62
2021/10/24 21:30:00;;;;;;;5.10;4.60;;;7.10;99.90;;;;;;5008951;28;20224;-59
2021/10/24 21:32:27;;;;;;;6.90;5.30;;;7.10;99.90;;;;;;5013042;28;20188;-60
2021/10/24 21:34:54;;;;;;;7.80;4.47;;;7.00;99.90;;;;;;5003651;28;20224;-61
2021/10/24 21:37:21;;;;;;;4.60;4.13;;;7.00;99.90;;;;;;4993130;28;20190;-62
2021/10/24 21:39:47;;;;;;;5.28;4.05;;;6.90;99.90;;;;;;4993545;28;20224;-61
2021/10/24 21:42:16;;;;;;;6.22;4.60;;;6.90;99.90;;;;;;4998955;28;20190;-60
2021/10/24 21:44:45;;;;;;;8.80;5.07;;;6.80;99.90;;;;;;4995716;28;20274;-63
2021/10/24 21:47:12;;;;;;;6.38;3.83;;;6.80;99.90;;;;;;4993218;28;20189;-61
2021/10/24 21:49:39;;;;;;;6.13;4.95;;;6.80;99.90;;;;;;4998672;28;20620;-61
2021/10/24 21:52:06;;;;;;;6.65;4.53;;;6.80;99.90;;;;;;5012432;28;20211;-60
2021/10/24 21:54:33;;;;;;;6.40;4.90;;;6.80;99.90;;;;;;5012272;28;20236;-61
2021/10/24 21:57:00;;;;;;;5.78;4.50;;;6.80;99.90;;;;;;5007523;28;20208;-61
2021/10/24 21:59:26;;;;;;;4.75;4.30;;;6.80;99.90;;;;;;5013546;28;20577;-60
2021/10/24 22:01:53;;;;;;;7.10;5.65;;;6.80;99.90;;;;;;5012612;28;20198;-60
2021/10/24 22:04:21;;;;;;;10.67;6.20;;;6.70;99.90;;;;;;4990597;28;20265;-62
2021/10/24 22:06:48;;;;;;;5.07;4.47;;;6.60;99.90;;;;;;4992837;28;20767;-61
2021/10/24 22:09:14;;;;;;;7.78;5.13;;;6.50;99.90;;;;;;4992084;28;20226;-61
2021/10/24 22:11:42;;;;;;;5.70;4.93;;;6.40;99.90;;;;;;4991531;28;20220;-61
2021/10/24 22:14:10;;;;;;;6.32;5.30;;;6.40;99.90;;;;;;4997975;28;20227;-61
2021/10/24 22:16:38;;;;;;;6.55;4.80;;;6.30;99.90;;;;;;4992472;28;20194;-62
2021/10/24 22:19:06;;;;;;;5.93;4.85;;;6.20;99.90;;;;;;4993809;28;20231;-61
2021/10/24 22:21:33;;;;;;;5.57;5.07;;;6.20;99.90;;;;;;5012316;28;20188;-61
2021/10/24 22:24:00;;;;;;;5.80;5.05;;;6.20;99.90;;;;;;5011232;28;20233;-62
2021/10/24 22:26:27;;;;;;;5.32;4.35;;;6.10;99.90;;;;;;5010260;28;20653;-61
2021/10/24 22:28:55;;;;;;;6.00;4.85;;;6.10;99.90;;;;;;4991949;28;20601;-62
2021/10/24 22:31:22;;;;;;;5.00;4.50;;;6.10;99.90;;;;;;4992563;28;20209;-60
2021/10/24 22:33:51;;;;;;;6.30;5.03;;;6.10;99.90;;;;;;4991687;28;20771;-61
2021/10/24 22:36:18;;;;;;;6.63;4.85;;;6.10;99.90;;;;;;5011787;28;20197;-60
2021/10/24 22:38:45;;;;;;;8.90;6.22;;;6.00;99.90;;;;;;5011275;28;20235;-61
2021/10/24 22:41:12;;;;;;;16.48;6.25;;;6.00;99.90;;;;;;5012260;28;20545;-60
2021/10/24 22:43:40;;;;;;;13.48;6.55;;;5.90;99.90;;;;;;5002924;28;20226;-60
2021/10/24 22:46:07;;;;;;;8.75;6.47;;;5.90;99.90;;;;;;4990891;28;20189;-61
2021/10/24 22:48:34;;;;;;;9.57;6.50;;;5.90;99.90;;;;;;4990639;28;20277;-61
2021/10/24 22:51:02;;;;;;;9.18;6.75;;;5.90;99.90;;;;;;4993639;28;20251;-61
2021/10/24 22:53:30;;;;;;;12.05;7.10;;;5.90;99.90;;;;;;5011298;28;20225;-60
2021/10/24 22:55:58;;;;;;;10.82;7.60;;;5.90;99.90;;;;;;5011732;28;20182;-61
2021/10/24 22:58:25;;;;;;;7.10;5.82;;;5.80;99.90;;;;;;5008683;28;20222;-61
2021/10/24 23:00:52;;;;;;;13.30;6.45;;;5.80;99.90;;;;;;5011683;28;20182;-60
2021/10/24 23:03:20;;;;;;;6.75;6.15;;;5.80;99.90;;;;;;5012335;28;20237;-60
2021/10/24 23:05:48;;;;;;;9.77;5.80;;;5.70;99.90;;;;;;4994197;28;20231;-61
2021/10/24 23:08:16;;;;;;;7.93;6.55;;;5.70;99.90;;;;;;4995424;28;20466;-60
2021/10/24 23:10:43;;;;;;;8.63;6.20;;;5.60;99.90;;;;;;4996108;28;20186;-60
2021/10/24 23:13:10;;;;;;;7.35;6.20;;;5.70;99.90;;;;;;5021496;28;20236;-60
2021/10/24 23:15:37;;;;;;;6.95;5.05;;;5.60;99.90;;;;;;5038794;28;20185;-62
2021/10/24 23:18:04;;;;;;;9.55;6.60;;;5.60;99.90;;;;;;5035264;28;20185;-61
2021/10/24 23:20:32;;;;;;;8.13;5.60;;;5.60;99.90;;;;;;5021130;28;20551;-61
2021/10/24 23:22:59;;;;;;;9.75;5.68;;;5.50;99.90;;;;;;5014795;28;20196;-61
2021/10/24 23:25:30;;;;;;;8.05;5.75;;;5.50;99.90;;;;;;5030473;23;20178;-62
2021/10/24 23:27:57;;;;;;;8.07;5.78;;;5.50;99.90;;;;;;5018158;28;20694;-60
2021/10/24 23:30:25;;;;;;;9.13;5.60;;;5.40;99.90;;;;;;5035487;28;20191;-60
2021/10/24 23:32:52;;;;;;;10.27;6.03;;;5.30;99.90;;;;;;5024177;28;20186;-60
2021/10/24 23:35:20;;;;;;;13.02;6.57;;;5.40;99.90;;;;;;5002856;28;20435;-60
2021/10/24 23:37:47;;;;;;;8.45;6.68;;;5.30;99.90;;;;;;4977891;28;20621;-60
2021/10/24 23:40:14;;;;;;;9.60;6.63;;;5.40;99.90;;;;;;4995014;28;20222;-60
2021/10/24 23:42:41;;;;;;;7.18;6.03;;;5.30;99.90;;;;;;5022790;28;20201;-60
2021/10/24 23:45:09;;;;;;;7.70;6.20;;;5.30;99.90;;;;;;5034393;28;20225;-60
2021/10/24 23:47:38;;;;;;;8.27;6.95;;;5.30;99.90;;;;;;5024278;28;20562;-60
2021/10/24 23:50:06;;;;;;;7.90;6.15;;;5.20;99.90;;;;;;5004240;28;20218;-60
2021/10/24 23:52:33;;;;;;;8.38;7.30;;;5.30;99.90;;;;;;4995410;28;20183;-60
2021/10/24 23:55:01;;;;;;;15.48;7.28;;;5.30;99.90;;;;;;4977413;28;20230;-60
2021/10/24 23:57:29;;;;;;;11.80;6.90;;;5.20;99.90;;;;;;4995408;28;20568;-60
2021/10/24 23:59:56;;;;;;;13.20;7.70;;;5.20;99.90;;;;;;5017487;28;20224;-60
